• Join FlightAware (Why Join?)
  • Login
  • US Flag 
04:51AM EDT


 

Airport Tracker/Info


-or-


 

Live Flight TrackerFlight Track Log ✈ ASQ5740 ✈ 22-Nov-2013 ✈ KGSP - KIAD

Flight Track Log - Related Links

Times and Time Zones

All times are in EST time to prevent confusion due to time zone crossing. See the ASQ5740 flight status page for this flight to view local times or setup timezone preferences in your user account.

Time Position Orientation Groundspeed Altitude Reporting Facility
EST Latitude Longitude Course Direction KTS MPH feet Rate Location/Type
03:20PM 34.8322 -82.1992 73° East 133 153 4,300  Level Atlanta Center
03:21PM 34.8836 -82.1397 43° Northeast 133 153 6,400 2,100 Climbing Atlanta Center
03:22PM 35.2344 -81.8476 80° East  Level Estimated
03:22PM 34.9453 -82.0850 36° Northeast 198 228 8,600  Level Atlanta Center
03:23PM 35.3189 -81.7543 71° East  Level Estimated
03:23PM 35.0153 -82.0225 36° Northeast 264 304 10,300  Level Atlanta Center
03:24PM 35.4230 -81.6979 24° Northeast  Level FlightAware Approximate
03:24PM 35.0914 -81.9572 35° Northeast 299 344 12,500  Level Atlanta Center
03:25PM 35.5068 -81.6035 73° East  Level Estimated
03:25PM 35.1786 -81.9372 11° North 306 352 14,400  Level Atlanta Center
03:26PM 35.2686 -81.9428 357° North 306 352 16,100 1,680 Climbing Atlanta Center
03:27PM 35.3381 -81.8697 41° Northeast 306 352 17,800 1,380 Climbing Atlanta Center
03:28PM 35.3819 -81.7539 65° Northeast 314 361 18,900 1,200 Climbing Atlanta Center
03:29PM 35.4256 -81.6406 65° Northeast 342 394 20,300 1,200 Climbing Atlanta Center
03:30PM 35.4692 -81.5244 65° Northeast 354 407 21,400 1,020 Climbing Atlanta Center
03:31PM 35.5147 -81.4083 64° Northeast 365 420 22,400 720 Climbing Atlanta Center
03:32PM 35.5642 -81.2789 65° Northeast 372 428 22,900 780 Climbing Atlanta Center
03:33PM 35.6172 -81.1419 64° Northeast 392 451 24,000 960 Climbing Atlanta Center
03:34PM 35.6792 -81.0194 58° Northeast 411 473 24,900 900 Climbing Atlanta Center
03:35PM 35.7386 -80.8969 59° Northeast 416 479 25,800 540 Climbing Atlanta Center
03:36PM 35.8022 -80.7767 57° Northeast 416 479 26,000 180 Climbing Atlanta Center
03:37PM 35.8633 -80.6489 59° Northeast 416 479 26,200 420 Climbing Atlanta Center
03:38PM 35.9286 -80.5203 58° Northeast 428 493 26,900 600 Climbing Atlanta Center
03:39PM 35.9914 -80.3867 60° Northeast 434 499 27,500 600 Climbing Atlanta Center
03:40PM 36.0586 -80.2606 57° Northeast 434 499 28,100 600 Climbing Atlanta Center
03:42PM 36.1944 -79.9803 59° Northeast 438 504 29,400 600 Climbing Washington Center
03:43PM 36.2578 -79.8475 59° Northeast 438 504 30,000 600 Climbing Washington Center
03:44PM 36.3164 -79.7242 59° Northeast 448 516 30,600 480 Climbing Washington Center
03:45PM 36.3919 -79.5836 56° Northeast 453 521 31,000 180 Climbing Washington Center
03:46PM 36.4911 -79.4881 38° Northeast 444 511 31,000 -540 Level Washington Center
03:47PM 36.5900 -79.3972 36° Northeast 433 498 30,000 -960 Descending Washington Center
03:48PM 36.6803 -79.3161 36° Northeast 444 511 29,100 -540 Descending Washington Center
03:49PM 36.7875 -79.2175 36° Northeast 437 503 29,000 -600 Descending Washington Center
03:50PM 36.8656 -79.1253 43° Northeast 432 497 28,000 -1,440 Descending Washington Center
03:51PM 36.8992 -78.9658 75° East 406 467 26,100 -1,500 Descending Washington Center
03:52PM 36.9217 -78.8369 78° East 412 474 25,000 -600 Descending Washington Center
03:53PM 36.9464 -78.6872 78° East 406 467 25,000  Level Washington Center
03:54PM 36.9642 -78.5606 80° East 406 467 25,000 -240 Level Washington Center
03:55PM 36.9867 -78.4053 80° East 411 473 24,600 -660 Descending Washington Center
03:56PM 37.0044 -78.2758 80° East 405 466 23,700 -840 Descending Washington Center
03:57PM 37.0264 -78.1283 79° East 410 472 23,000 -360 Descending Washington Center
03:58PM 37.0439 -77.9911 81° East 404 465 23,000  Level Washington Center
03:59PM 37.1103 -77.9019 47° Northeast 345 397 23,000  Level Washington Center
04:00PM 37.1864 -77.9539 331° Northwest 225 259 23,000 -60 Level Washington Center
04:01PM 37.2539 -78.0211 322° Northwest 242 278 22,900 -540 Descending Washington Center
04:02PM 37.3256 -78.0861 324° Northwest 282 325 22,000 -480 Descending Washington Center
04:03PM 37.4158 -78.0525 16° North 286 329 22,000 -300 Level Washington Center
04:04PM 37.4747 -77.9364 57° Northeast 302 348 21,400 -900 Descending Washington Center
04:05PM 37.5372 -77.8258 54° Northeast 339 390 20,300 -1,080 Descending Washington Center
04:06PM 37.6258 -77.7708 26° Northeast 346 398 19,300 -1,020 Descending Washington Center
04:07PM 37.7161 -77.7419 14° North 330 380 18,300 -960 Descending Washington Center
04:08PM 37.8014 -77.7547 353° North 317 365 17,500 -960 Descending Washington Center
04:09PM 37.8331 -77.8425 295° West 245 282 16,500 -1,140 Descending Washington Center
04:10PM 37.8969 -77.8786 336° Northwest 253 291 15,300 -1,080 Descending Washington Center
04:11PM 37.9633 -77.7964 44° Northeast 239 275 14,400 -1,200 Descending Washington Center
04:12PM 38.0297 -77.6956 50° Northeast 275 316 13,000 -1,380 Descending Washington Center
04:13PM 38.0856 -77.6047 52° Northeast 307 353 11,800 -1,260 Descending Washington Center
04:14PM 38.1411 -77.5164 51° Northeast 314 361 10,600 -900 Descending Washington Center
04:15PM 38.2008 -77.4361 47° Northeast 319 367 10,000 -300 Descending Washington Center
04:16PM 38.2786 -77.3903 25° Northeast 304 350 10,000 -360 Level Washington Center
04:17PM 38.3542 -77.3578 19° North 291 335 9,400 -1,140 Descending Washington Center
04:18PM 38.4333 -77.3597 359° North 282 325 7,800 -1,500 Descending Washington Center
04:19PM 38.5106 -77.3614 359° North 271 312 6,400 -1,380 Descending Washington Center
04:20PM 38.5833 -77.3683 356° North 271 312 5,100 -1,080 Descending Washington Center
04:21PM 38.6586 -77.3650 North 271 312 4,300 -600 Descending Washington Center
04:22PM 38.7336 -77.3642 360° North 271 312 4,000 -180 Descending Washington Center
04:24PM 38.8333 -77.3500 North 263 303 4,000 -300 Level Potomac TRACON
04:25PM 38.9167 -77.3500 360° North 266 306 3,400 -540 Descending Potomac TRACON
04:26PM 38.9833 -77.3500 360° North 258 297 3,000 -660 Descending Potomac TRACON
04:27PM 39.0500 -77.3500 360° North 226 260 2,100 -540 Descending Potomac TRACON
04:28PM 39.0833 -77.3833 322° Northwest 194 223 2,000 -60 Descending Potomac TRACON
04:29PM 39.0500 -77.4333 229° Southwest 173 199 2,000 -360 Level Potomac TRACON
04:30PM 39.0000 -77.4333 180° South 148 170 1,300 -720 Descending Potomac TRACON
04:32PM 38.9474 -77.4599 191° South  Level Estimated
04:39PM 38.9474 -77.4599 191° South  Level Estimated